sensor_id;sensor_type;location;lat;lon;timestamp;temperature;humidity
60353;DHT22;46196;52.970;6.954;2022-12-13T00:00:37;-3.50;99.90
60353;DHT22;46196;52.970;6.954;2022-12-13T00:03:03;-3.50;99.90
60353;DHT22;46196;52.970;6.954;2022-12-13T00:05:29;-3.40;99.90
60353;DHT22;46196;52.970;6.954;2022-12-13T00:07:58;-3.40;99.90
60353;DHT22;46196;52.970;6.954;2022-12-13T00:10:24;-3.40;99.90
60353;DHT22;46196;52.970;6.954;2022-12-13T00:12:50;-3.40;99.90
60353;DHT22;46196;52.970;6.954;2022-12-13T00:15:15;-3.50;99.90
60353;DHT22;46196;52.970;6.954;2022-12-13T00:17:41;-3.40;99.90
60353;DHT22;46196;52.970;6.954;2022-12-13T00:20:07;-3.50;99.90
60353;DHT22;46196;52.970;6.954;2022-12-13T00:22:33;-3.50;99.90
60353;DHT22;46196;52.970;6.954;2022-12-13T00:24:59;-3.50;99.90
60353;DHT22;46196;52.970;6.954;2022-12-13T00:27:24;-3.50;99.90
60353;DHT22;46196;52.970;6.954;2022-12-13T00:29:50;-3.50;99.90
60353;DHT22;46196;52.970;6.954;2022-12-13T00:32:16;-3.50;99.90
60353;DHT22;46196;52.970;6.954;2022-12-13T00:34:42;-3.50;99.90
60353;DHT22;46196;52.970;6.954;2022-12-13T00:37:08;-3.60;99.90
60353;DHT22;46196;52.970;6.954;2022-12-13T00:39:33;-3.60;99.90
60353;DHT22;46196;52.970;6.954;2022-12-13T00:41:59;-3.60;99.90
60353;DHT22;46196;52.970;6.954;2022-12-13T00:44:25;-3.60;99.90
60353;DHT22;46196;52.970;6.954;2022-12-13T00:46:51;-3.60;99.90
60353;DHT22;46196;52.970;6.954;2022-12-13T00:49:18;-3.60;99.90
60353;DHT22;46196;52.970;6.954;2022-12-13T00:51:44;-3.60;99.90
60353;DHT22;46196;52.970;6.954;2022-12-13T00:54:09;-3.60;99.90
60353;DHT22;46196;52.970;6.954;2022-12-13T00:56:36;-2.70;99.90
60353;DHT22;46196;52.970;6.954;2022-12-13T00:59:02;-3.60;99.90
60353;DHT22;46196;52.970;6.954;2022-12-13T01:01:33;-3.60;99.90
60353;DHT22;46196;52.970;6.954;2022-12-13T01:04:02;-3.60;99.90
60353;DHT22;46196;52.970;6.954;2022-12-13T01:06:41;-3.60;99.90
60353;DHT22;46196;52.970;6.954;2022-12-13T01:09:14;-3.60;99.90
60353;DHT22;46196;52.970;6.954;2022-12-13T01:11:42;-3.60;99.90
60353;DHT22;46196;52.970;6.954;2022-12-13T01:14:07;-3.70;99.90
60353;DHT22;46196;52.970;6.954;2022-12-13T01:16:33;-3.70;99.90
60353;DHT22;46196;52.970;6.954;2022-12-13T01:18:59;-3.70;99.90
60353;DHT22;46196;52.970;6.954;2022-12-13T01:21:25;-3.80;99.90
60353;DHT22;46196;52.970;6.954;2022-12-13T01:23:51;-3.80;99.90
60353;DHT22;46196;52.970;6.954;2022-12-13T01:26:19;-3.80;99.90
60353;DHT22;46196;52.970;6.954;2022-12-13T01:28:46;-3.80;99.90
60353;DHT22;46196;52.970;6.954;2022-12-13T01:31:15;-2.60;99.90
60353;DHT22;46196;52.970;6.954;2022-12-13T01:33:42;-3.90;99.90
60353;DHT22;46196;52.970;6.954;2022-12-13T01:36:10;-3.90;99.90
60353;DHT22;46196;52.970;6.954;2022-12-13T01:38:37;-3.90;99.90
60353;DHT22;46196;52.970;6.954;2022-12-13T01:41:04;-3.90;99.90
60353;DHT22;46196;52.970;6.954;2022-12-13T01:46:02;-4.00;99.90
60353;DHT22;46196;52.970;6.954;2022-12-13T01:48:32;-4.00;99.90
60353;DHT22;46196;52.970;6.954;2022-12-13T01:51:02;-4.00;99.90
60353;DHT22;46196;52.970;6.954;2022-12-13T01:53:33;-4.00;99.90
60353;DHT22;46196;52.970;6.954;2022-12-13T01:56:05;-4.10;99.90
60353;DHT22;46196;52.970;6.954;2022-12-13T01:58:33;-4.10;99.90
60353;DHT22;46196;52.970;6.954;2022-12-13T02:00:59;-4.10;99.90
60353;DHT22;46196;52.970;6.954;2022-12-13T02:03:25;-4.20;99.90
60353;DHT22;46196;52.970;6.954;2022-12-13T02:06:14;-4.20;99.90
60353;DHT22;46196;52.970;6.954;2022-12-13T02:08:43;-4.20;99.90
60353;DHT22;46196;52.970;6.954;2022-12-13T02:11:10;-4.20;99.90
60353;DHT22;46196;52.970;6.954;2022-12-13T02:13:36;-4.20;99.90
60353;DHT22;46196;52.970;6.954;2022-12-13T02:16:11;-4.30;99.90
60353;DHT22;46196;52.970;6.954;2022-12-13T02:19:05;-4.30;99.90
60353;DHT22;46196;52.970;6.954;2022-12-13T02:30:17;-4.40;99.90
60353;DHT22;46196;52.970;6.954;2022-12-13T02:36:19;-4.40;99.90
60353;DHT22;46196;52.970;6.954;2022-12-13T02:38:32;-4.40;99.90
60353;DHT22;46196;52.970;6.954;2022-12-13T02:41:25;-4.50;99.90
60353;DHT22;46196;52.970;6.954;2022-12-13T02:44:04;-4.50;99.90
60353;DHT22;46196;52.970;6.954;2022-12-13T02:46:36;-4.50;99.90
60353;DHT22;46196;52.970;6.954;2022-12-13T02:49:05;-4.50;99.90
60353;DHT22;46196;52.970;6.954;2022-12-13T02:51:32;-4.60;99.90
60353;DHT22;46196;52.970;6.954;2022-12-13T02:53:59;-4.50;99.90
60353;DHT22;46196;52.970;6.954;2022-12-13T02:56:25;-4.60;99.90
60353;DHT22;46196;52.970;6.954;2022-12-13T02:58:52;-4.50;99.90
60353;DHT22;46196;52.970;6.954;2022-12-13T03:04:22;-4.60;99.90
60353;DHT22;46196;52.970;6.954;2022-12-13T03:07:20;-4.60;99.90
60353;DHT22;46196;52.970;6.954;2022-12-13T03:09:58;-4.60;99.90
60353;DHT22;46196;52.970;6.954;2022-12-13T03:12:53;-4.60;99.90
60353;DHT22;46196;52.970;6.954;2022-12-13T03:15:44;-4.70;99.90
60353;DHT22;46196;52.970;6.954;2022-12-13T03:18:17;-4.70;99.90
60353;DHT22;46196;52.970;6.954;2022-12-13T03:20:56;-4.70;99.90
60353;DHT22;46196;52.970;6.954;2022-12-13T03:23:23;-4.70;99.90
60353;DHT22;46196;52.970;6.954;2022-12-13T03:25:52;-4.70;99.90
60353;DHT22;46196;52.970;6.954;2022-12-13T03:28:19;-4.70;99.90
60353;DHT22;46196;52.970;6.954;2022-12-13T03:30:44;-4.70;99.90
60353;DHT22;46196;52.970;6.954;2022-12-13T03:33:10;-4.60;99.90
60353;DHT22;46196;52.970;6.954;2022-12-13T03:35:37;-4.70;99.90
60353;DHT22;46196;52.970;6.954;2022-12-13T03:38:04;-4.70;99.90
60353;DHT22;46196;52.970;6.954;2022-12-13T03:40:30;-4.70;99.90
60353;DHT22;46196;52.970;6.954;2022-12-13T03:42:57;-4.70;99.90
60353;DHT22;46196;52.970;6.954;2022-12-13T03:45:23;-4.70;99.90
60353;DHT22;46196;52.970;6.954;2022-12-13T03:47:49;-4.70;99.90
60353;DHT22;46196;52.970;6.954;2022-12-13T03:50:15;-4.70;99.90
60353;DHT22;46196;52.970;6.954;2022-12-13T03:52:41;-4.70;99.90
60353;DHT22;46196;52.970;6.954;2022-12-13T03:55:07;-4.70;99.90
60353;DHT22;46196;52.970;6.954;2022-12-13T03:57:33;-4.70;99.90
60353;DHT22;46196;52.970;6.954;2022-12-13T03:59:59;-4.70;99.90
60353;DHT22;46196;52.970;6.954;2022-12-13T04:02:24;-4.70;99.90
60353;DHT22;46196;52.970;6.954;2022-12-13T04:04:50;-4.70;99.90
60353;DHT22;46196;52.970;6.954;2022-12-13T04:07:16;-4.70;99.90
60353;DHT22;46196;52.970;6.954;2022-12-13T04:09:42;-4.70;99.90
60353;DHT22;46196;52.970;6.954;2022-12-13T04:12:07;-4.80;99.90
60353;DHT22;46196;52.970;6.954;2022-12-13T04:14:52;-4.70;99.90
60353;DHT22;46196;52.970;6.954;2022-12-13T04:17:17;-4.70;99.90
60353;DHT22;46196;52.970;6.954;2022-12-13T04:19:43;-4.70;99.90
60353;DHT22;46196;52.970;6.954;2022-12-13T04:22:09;-4.20;99.90
60353;DHT22;46196;52.970;6.954;2022-12-13T04:24:34;-4.80;99.90
60353;DHT22;46196;52.970;6.954;2022-12-13T04:27:00;-4.80;99.90
60353;DHT22;46196;52.970;6.954;2022-12-13T04:29:26;-4.80;99.90
60353;DHT22;46196;52.970;6.954;2022-12-13T04:31:52;-4.70;99.90
60353;DHT22;46196;52.970;6.954;2022-12-13T04:34:18;-4.70;99.90
60353;DHT22;46196;52.970;6.954;2022-12-13T04:36:44;-4.70;99.90
60353;DHT22;46196;52.970;6.954;2022-12-13T04:39:09;-4.70;99.90
60353;DHT22;46196;52.970;6.954;2022-12-13T04:41:37;-4.70;99.90
60353;DHT22;46196;52.970;6.954;2022-12-13T04:44:04;-4.70;99.90
60353;DHT22;46196;52.970;6.954;2022-12-13T04:46:30;-4.70;99.90
60353;DHT22;46196;52.970;6.954;2022-12-13T04:48:56;-4.70;99.90
60353;DHT22;46196;52.970;6.954;2022-12-13T04:51:22;-4.70;99.90
60353;DHT22;46196;52.970;6.954;2022-12-13T04:53:47;-4.70;99.90
60353;DHT22;46196;52.970;6.954;2022-12-13T04:56:13;-4.70;99.90
60353;DHT22;46196;52.970;6.954;2022-12-13T04:58:39;-4.70;99.90
60353;DHT22;46196;52.970;6.954;2022-12-13T05:01:09;-4.70;99.90
60353;DHT22;46196;52.970;6.954;2022-12-13T05:03:36;-4.70;99.90
60353;DHT22;46196;52.970;6.954;2022-12-13T05:06:06;-4.70;99.90
60353;DHT22;46196;52.970;6.954;2022-12-13T05:08:32;-4.70;99.90
60353;DHT22;46196;52.970;6.954;2022-12-13T05:10:58;-4.70;99.90
60353;DHT22;46196;52.970;6.954;2022-12-13T05:13:24;-4.70;99.90
60353;DHT22;46196;52.970;6.954;2022-12-13T05:15:57;-4.70;99.90
60353;DHT22;46196;52.970;6.954;2022-12-13T05:18:23;-4.70;99.90
60353;DHT22;46196;52.970;6.954;2022-12-13T05:20:49;-4.70;99.90
60353;DHT22;46196;52.970;6.954;2022-12-13T05:23:16;-4.70;99.90
60353;DHT22;46196;52.970;6.954;2022-12-13T05:25:42;-4.70;99.90
60353;DHT22;46196;52.970;6.954;2022-12-13T05:28:08;-4.70;99.90
60353;DHT22;46196;52.970;6.954;2022-12-13T05:30:37;-4.80;99.90
60353;DHT22;46196;52.970;6.954;2022-12-13T05:33:03;-4.80;99.90
60353;DHT22;46196;52.970;6.954;2022-12-13T05:35:29;-4.80;99.90
60353;DHT22;46196;52.970;6.954;2022-12-13T05:37:54;-4.80;99.90
60353;DHT22;46196;52.970;6.954;2022-12-13T05:40:21;-4.80;99.90
60353;DHT22;46196;52.970;6.954;2022-12-13T05:42:47;-4.80;99.90
60353;DHT22;46196;52.970;6.954;2022-12-13T05:45:16;-4.90;99.90
60353;DHT22;46196;52.970;6.954;2022-12-13T05:47:41;-4.90;99.90
60353;DHT22;46196;52.970;6.954;2022-12-13T05:50:07;-4.90;99.90
60353;DHT22;46196;52.970;6.954;2022-12-13T05:52:33;-4.90;99.90
60353;DHT22;46196;52.970;6.954;2022-12-13T05:54:59;-4.90;99.90
60353;DHT22;46196;52.970;6.954;2022-12-13T05:57:25;-4.90;99.90
60353;DHT22;46196;52.970;6.954;2022-12-13T05:59:51;-4.90;99.90
60353;DHT22;46196;52.970;6.954;2022-12-13T06:02:17;-4.90;99.90
60353;DHT22;46196;52.970;6.954;2022-12-13T06:04:43;-4.90;99.90
60353;DHT22;46196;52.970;6.954;2022-12-13T06:07:10;-4.90;99.90
60353;DHT22;46196;52.970;6.954;2022-12-13T06:09:36;-4.90;99.90
60353;DHT22;46196;52.970;6.954;2022-12-13T06:12:02;-4.80;99.90
60353;DHT22;46196;52.970;6.954;2022-12-13T06:14:27;-4.80;99.90
60353;DHT22;46196;52.970;6.954;2022-12-13T06:16:53;-4.80;99.90
60353;DHT22;46196;52.970;6.954;2022-12-13T06:19:23;-4.70;99.90
60353;DHT22;46196;52.970;6.954;2022-12-13T06:21:50;-4.70;99.90
60353;DHT22;46196;52.970;6.954;2022-12-13T06:24:19;-4.60;99.90
60353;DHT22;46196;52.970;6.954;2022-12-13T06:26:45;-4.60;99.90
60353;DHT22;46196;52.970;6.954;2022-12-13T06:29:15;-4.60;99.90
60353;DHT22;46196;52.970;6.954;2022-12-13T06:31:41;-4.50;99.90
60353;DHT22;46196;52.970;6.954;2022-12-13T06:34:07;-4.50;99.90
60353;DHT22;46196;52.970;6.954;2022-12-13T06:36:33;-4.50;99.90
60353;DHT22;46196;52.970;6.954;2022-12-13T06:39:05;-4.50;99.90
60353;DHT22;46196;52.970;6.954;2022-12-13T06:41:32;-4.50;99.90
60353;DHT22;46196;52.970;6.954;2022-12-13T06:43:58;-4.50;99.90
60353;DHT22;46196;52.970;6.954;2022-12-13T06:46:24;-4.60;99.90
60353;DHT22;46196;52.970;6.954;2022-12-13T06:48:50;-4.50;99.90
60353;DHT22;46196;52.970;6.954;2022-12-13T06:51:16;-4.50;99.90
60353;DHT22;46196;52.970;6.954;2022-12-13T06:53:42;-4.50;99.90
60353;DHT22;46196;52.970;6.954;2022-12-13T06:56:11;-4.50;99.90
60353;DHT22;46196;52.970;6.954;2022-12-13T06:58:37;-4.50;99.90
60353;DHT22;46196;52.970;6.954;2022-12-13T07:01:08;-4.50;99.90
60353;DHT22;46196;52.970;6.954;2022-12-13T07:03:35;-4.50;99.90
60353;DHT22;46196;52.970;6.954;2022-12-13T07:06:18;-4.50;99.90
60353;DHT22;46196;52.970;6.954;2022-12-13T07:08:48;-4.60;99.90
60353;DHT22;46196;52.970;6.954;2022-12-13T07:11:15;-4.60;99.90
60353;DHT22;46196;52.970;6.954;2022-12-13T07:13:41;-4.60;99.90
60353;DHT22;46196;52.970;6.954;2022-12-13T07:16:08;-4.60;99.90
60353;DHT22;46196;52.970;6.954;2022-12-13T07:18:34;-4.60;99.90
60353;DHT22;46196;52.970;6.954;2022-12-13T07:21:03;-4.60;99.90
60353;DHT22;46196;52.970;6.954;2022-12-13T07:23:29;-4.60;99.90
60353;DHT22;46196;52.970;6.954;2022-12-13T07:25:55;-4.60;99.90
60353;DHT22;46196;52.970;6.954;2022-12-13T07:28:21;-4.60;99.90
60353;DHT22;46196;52.970;6.954;2022-12-13T07:30:47;-4.60;99.90
60353;DHT22;46196;52.970;6.954;2022-12-13T07:33:13;-4.60;99.90
60353;DHT22;46196;52.970;6.954;2022-12-13T07:35:39;-4.60;99.90
60353;DHT22;46196;52.970;6.954;2022-12-13T07:38:06;-4.50;99.90
60353;DHT22;46196;52.970;6.954;2022-12-13T07:40:38;-4.60;99.90
60353;DHT22;46196;52.970;6.954;2022-12-13T07:43:04;-4.60;99.90
60353;DHT22;46196;52.970;6.954;2022-12-13T07:45:31;-4.50;99.90
60353;DHT22;46196;52.970;6.954;2022-12-13T07:47:57;-4.50;99.90
60353;DHT22;46196;52.970;6.954;2022-12-13T07:50:23;-4.50;99.90
60353;DHT22;46196;52.970;6.954;2022-12-13T07:52:50;-4.50;99.90
60353;DHT22;46196;52.970;6.954;2022-12-13T07:55:16;-4.50;99.90
60353;DHT22;46196;52.970;6.954;2022-12-13T07:57:45;-4.50;99.90
60353;DHT22;46196;52.970;6.954;2022-12-13T08:00:12;-4.40;99.90
60353;DHT22;46196;52.970;6.954;2022-12-13T08:02:39;-4.40;99.90
60353;DHT22;46196;52.970;6.954;2022-12-13T08:05:06;-4.40;99.90
60353;DHT22;46196;52.970;6.954;2022-12-13T08:07:35;-4.40;99.90
60353;DHT22;46196;52.970;6.954;2022-12-13T08:10:01;-4.30;99.90
60353;DHT22;46196;52.970;6.954;2022-12-13T08:12:33;-4.30;99.90
60353;DHT22;46196;52.970;6.954;2022-12-13T08:15:00;-4.30;99.90
60353;DHT22;46196;52.970;6.954;2022-12-13T08:17:26;-4.30;99.90
60353;DHT22;46196;52.970;6.954;2022-12-13T08:19:53;-4.30;99.90
60353;DHT22;46196;52.970;6.954;2022-12-13T08:22:25;-4.30;99.90
60353;DHT22;46196;52.970;6.954;2022-12-13T08:24:51;-4.30;99.90
60353;DHT22;46196;52.970;6.954;2022-12-13T08:27:18;-4.30;99.90
60353;DHT22;46196;52.970;6.954;2022-12-13T08:29:43;-4.30;99.90
60353;DHT22;46196;52.970;6.954;2022-12-13T08:32:11;-4.30;99.90
60353;DHT22;46196;52.970;6.954;2022-12-13T08:34:37;-4.30;99.90
60353;DHT22;46196;52.970;6.954;2022-12-13T08:37:04;-4.20;99.90
60353;DHT22;46196;52.970;6.954;2022-12-13T08:39:32;-4.20;99.90
60353;DHT22;46196;52.970;6.954;2022-12-13T08:42:06;-4.20;99.90
60353;DHT22;46196;52.970;6.954;2022-12-13T08:44:35;-4.10;99.90
60353;DHT22;46196;52.970;6.954;2022-12-13T08:47:01;-4.10;99.90
60353;DHT22;46196;52.970;6.954;2022-12-13T08:49:27;-4.10;99.90
60353;DHT22;46196;52.970;6.954;2022-12-13T08:51:56;-4.10;99.90
60353;DHT22;46196;52.970;6.954;2022-12-13T08:54:22;-4.00;99.90
60353;DHT22;46196;52.970;6.954;2022-12-13T08:56:49;-3.90;99.90
60353;DHT22;46196;52.970;6.954;2022-12-13T08:59:15;-3.90;99.90
60353;DHT22;46196;52.970;6.954;2022-12-13T09:01:41;-3.90;99.90
60353;DHT22;46196;52.970;6.954;2022-12-13T09:04:07;-3.80;99.90
60353;DHT22;46196;52.970;6.954;2022-12-13T09:06:33;-3.80;99.90
60353;DHT22;46196;52.970;6.954;2022-12-13T09:08:59;-3.70;99.90
60353;DHT22;46196;52.970;6.954;2022-12-13T09:11:25;-3.60;99.90
60353;DHT22;46196;52.970;6.954;2022-12-13T09:13:51;-3.60;99.90
60353;DHT22;46196;52.970;6.954;2022-12-13T09:16:21;-3.50;99.90
60353;DHT22;46196;52.970;6.954;2022-12-13T09:18:49;-3.50;99.90
60353;DHT22;46196;52.970;6.954;2022-12-13T09:21:15;-1.80;99.90
60353;DHT22;46196;52.970;6.954;2022-12-13T09:23:42;-3.40;99.90
60353;DHT22;46196;52.970;6.954;2022-12-13T09:26:10;-3.40;99.90
60353;DHT22;46196;52.970;6.954;2022-12-13T09:28:37;-3.40;99.90
60353;DHT22;46196;52.970;6.954;2022-12-13T09:31:10;-3.40;99.90
60353;DHT22;46196;52.970;6.954;2022-12-13T09:33:36;-3.40;99.90
60353;DHT22;46196;52.970;6.954;2022-12-13T09:36:07;-3.30;99.90
60353;DHT22;46196;52.970;6.954;2022-12-13T09:38:34;-3.30;99.90
60353;DHT22;46196;52.970;6.954;2022-12-13T09:43:36;-3.20;99.90
60353;DHT22;46196;52.970;6.954;2022-12-13T09:46:20;-3.10;99.90
60353;DHT22;46196;52.970;6.954;2022-12-13T09:48:47;-3.00;99.90
60353;DHT22;46196;52.970;6.954;2022-12-13T09:51:13;-3.00;99.90
60353;DHT22;46196;52.970;6.954;2022-12-13T09:53:39;-2.90;99.90
60353;DHT22;46196;52.970;6.954;2022-12-13T09:56:10;-2.90;99.90
60353;DHT22;46196;52.970;6.954;2022-12-13T09:58:37;-2.80;99.90
60353;DHT22;46196;52.970;6.954;2022-12-13T10:01:06;-2.80;99.90
60353;DHT22;46196;52.970;6.954;2022-12-13T10:03:45;-2.80;99.90
60353;DHT22;46196;52.970;6.954;2022-12-13T10:06:19;-2.80;99.90
60353;DHT22;46196;52.970;6.954;2022-12-13T10:08:52;-2.80;99.90
60353;DHT22;46196;52.970;6.954;2022-12-13T10:11:20;-2.70;99.90
60353;DHT22;46196;52.970;6.954;2022-12-13T10:13:54;-2.70;99.90
60353;DHT22;46196;52.970;6.954;2022-12-13T10:22:00;-2.50;99.90
60353;DHT22;46196;52.970;6.954;2022-12-13T10:24:50;-2.50;99.90
60353;DHT22;46196;52.970;6.954;2022-12-13T10:27:17;-2.40;99.90
60353;DHT22;46196;52.970;6.954;2022-12-13T10:30:00;-2.40;99.90
60353;DHT22;46196;52.970;6.954;2022-12-13T10:32:26;-2.30;99.90
60353;DHT22;46196;52.970;6.954;2022-12-13T10:34:52;-2.20;99.90
60353;DHT22;46196;52.970;6.954;2022-12-13T10:37:30;-2.10;99.90
60353;DHT22;46196;52.970;6.954;2022-12-13T10:39:57;-2.10;99.90
60353;DHT22;46196;52.970;6.954;2022-12-13T10:42:24;-1.90;99.90
60353;DHT22;46196;52.970;6.954;2022-12-13T10:45:14;-1.90;99.90
60353;DHT22;46196;52.970;6.954;2022-12-13T10:47:42;-1.70;99.90
60353;DHT22;46196;52.970;6.954;2022-12-13T10:50:23;-1.60;99.90
60353;DHT22;46196;52.970;6.954;2022-12-13T10:52:50;-1.50;99.90
60353;DHT22;46196;52.970;6.954;2022-12-13T10:55:34;-1.30;99.90
60353;DHT22;46196;52.970;6.954;2022-12-13T10:58:05;-1.20;99.90
60353;DHT22;46196;52.970;6.954;2022-12-13T11:00:44;-1.10;99.90
60353;DHT22;46196;52.970;6.954;2022-12-13T11:03:30;-1.00;99.90
60353;DHT22;46196;52.970;6.954;2022-12-13T11:06:13;-0.90;99.90
60353;DHT22;46196;52.970;6.954;2022-12-13T11:08:40;-0.80;99.90
60353;DHT22;46196;52.970;6.954;2022-12-13T11:11:07;-0.70;99.90
60353;DHT22;46196;52.970;6.954;2022-12-13T11:16:30;-0.50;99.90
60353;DHT22;46196;52.970;6.954;2022-12-13T11:18:59;-0.40;99.90
60353;DHT22;46196;52.970;6.954;2022-12-13T11:21:29;-0.30;99.90
60353;DHT22;46196;52.970;6.954;2022-12-13T11:23:58;-0.20;99.90
60353;DHT22;46196;52.970;6.954;2022-12-13T11:26:25;-0.10;99.90
60353;DHT22;46196;52.970;6.954;2022-12-13T11:40:12;0.10;99.90
60353;DHT22;46196;52.970;6.954;2022-12-13T11:42:54;0.10;99.90
60353;DHT22;46196;52.970;6.954;2022-12-13T11:45:46;0.20;99.90
60353;DHT22;46196;52.970;6.954;2022-12-13T11:48:52;0.20;99.90
60353;DHT22;46196;52.970;6.954;2022-12-13T11:51:13;0.20;99.90
60353;DHT22;46196;52.970;6.954;2022-12-13T11:53:57;0.30;99.90
60353;DHT22;46196;52.970;6.954;2022-12-13T11:56:25;0.50;99.90
60353;DHT22;46196;52.970;6.954;2022-12-13T12:01:42;0.90;99.90
60353;DHT22;46196;52.970;6.954;2022-12-13T12:09:22;0.60;99.90
60353;DHT22;46196;52.970;6.954;2022-12-13T12:12:00;1.50;99.90
60353;DHT22;46196;52.970;6.954;2022-12-13T12:17:24;0.90;99.90
60353;DHT22;46196;52.970;6.954;2022-12-13T12:19:56;1.00;99.90
60353;DHT22;46196;52.970;6.954;2022-12-13T12:25:42;1.20;99.90
60353;DHT22;46196;52.970;6.954;2022-12-13T12:31:10;1.40;99.90
60353;DHT22;46196;52.970;6.954;2022-12-13T12:42:22;1.50;99.90
60353;DHT22;46196;52.970;6.954;2022-12-13T12:53:25;1.70;99.90
60353;DHT22;46196;52.970;6.954;2022-12-13T12:56:13;1.70;99.90
60353;DHT22;46196;52.970;6.954;2022-12-13T12:58:51;1.70;99.90
60353;DHT22;46196;52.970;6.954;2022-12-13T13:03:54;1.70;99.90
60353;DHT22;46196;52.970;6.954;2022-12-13T13:06:22;1.60;99.90
60353;DHT22;46196;52.970;6.954;2022-12-13T13:09:16;1.60;99.90
60353;DHT22;46196;52.970;6.954;2022-12-13T13:11:44;1.60;99.90
60353;DHT22;46196;52.970;6.954;2022-12-13T13:14:36;1.60;99.90
60353;DHT22;46196;52.970;6.954;2022-12-13T13:19:51;1.50;99.90
60353;DHT22;46196;52.970;6.954;2022-12-13T13:22:29;1.50;99.90
60353;DHT22;46196;52.970;6.954;2022-12-13T13:27:42;1.30;99.90
60353;DHT22;46196;52.970;6.954;2022-12-13T13:30:23;1.30;99.90
60353;DHT22;46196;52.970;6.954;2022-12-13T13:32:52;1.30;99.90
60353;DHT22;46196;52.970;6.954;2022-12-13T13:38:46;1.20;99.90
60353;DHT22;46196;52.970;6.954;2022-12-13T13:47:27;1.00;99.90
60353;DHT22;46196;52.970;6.954;2022-12-13T13:55:58;0.80;99.90
60353;DHT22;46196;52.970;6.954;2022-12-13T13:58:41;0.80;99.90
60353;DHT22;46196;52.970;6.954;2022-12-13T14:10:24;0.60;99.90
60353;DHT22;46196;52.970;6.954;2022-12-13T14:24:25;0.00;99.90
60353;DHT22;46196;52.970;6.954;2022-12-13T14:29:40;0.20;99.90
60353;DHT22;46196;52.970;6.954;2022-12-13T14:32:09;0.20;99.90
60353;DHT22;46196;52.970;6.954;2022-12-13T14:34:39;0.10;99.90
60353;DHT22;46196;52.970;6.954;2022-12-13T14:37:27;0.10;99.90
60353;DHT22;46196;52.970;6.954;2022-12-13T14:39:55;0.90;99.90
60353;DHT22;46196;52.970;6.954;2022-12-13T14:42:32;-0.10;99.90
60353;DHT22;46196;52.970;6.954;2022-12-13T14:45:15;-0.10;99.90
60353;DHT22;46196;52.970;6.954;2022-12-13T14:47:46;-0.20;99.90
60353;DHT22;46196;52.970;6.954;2022-12-13T14:50:16;-1.10;99.90
60353;DHT22;46196;52.970;6.954;2022-12-13T14:52:43;-0.30;99.90
60353;DHT22;46196;52.970;6.954;2022-12-13T14:55:28;-0.30;99.90
60353;DHT22;46196;52.970;6.954;2022-12-13T14:57:57;-0.40;99.90
60353;DHT22;46196;52.970;6.954;2022-12-13T15:00:33;-0.40;99.90
60353;DHT22;46196;52.970;6.954;2022-12-13T15:03:02;-0.50;99.90
60353;DHT22;46196;52.970;6.954;2022-12-13T15:07:58;-0.50;99.90
60353;DHT22;46196;52.970;6.954;2022-12-13T15:12:53;-0.60;99.90
60353;DHT22;46196;52.970;6.954;2022-12-13T15:20:40;-0.80;99.90
60353;DHT22;46196;52.970;6.954;2022-12-13T15:23:36;-0.90;99.90
60353;DHT22;46196;52.970;6.954;2022-12-13T15:26:17;-0.90;99.90
60353;DHT22;46196;52.970;6.954;2022-12-13T15:28:48;-1.00;99.90
60353;DHT22;46196;52.970;6.954;2022-12-13T15:31:15;-1.10;99.90
60353;DHT22;46196;52.970;6.954;2022-12-13T15:33:43;-1.10;99.90
60353;DHT22;46196;52.970;6.954;2022-12-13T15:36:19;-1.20;99.90
60353;DHT22;46196;52.970;6.954;2022-12-13T15:38:59;-1.20;99.90
60353;DHT22;46196;52.970;6.954;2022-12-13T15:41:33;-1.30;99.90
60353;DHT22;46196;52.970;6.954;2022-12-13T15:44:26;-1.30;99.90
60353;DHT22;46196;52.970;6.954;2022-12-13T15:47:00;-1.40;99.90
60353;DHT22;46196;52.970;6.954;2022-12-13T15:49:36;-1.40;99.90
60353;DHT22;46196;52.970;6.954;2022-12-13T15:52:22;-1.50;99.90
60353;DHT22;46196;52.970;6.954;2022-12-13T15:54:56;-1.50;99.90
60353;DHT22;46196;52.970;6.954;2022-12-13T15:57:25;-1.50;99.90
60353;DHT22;46196;52.970;6.954;2022-12-13T16:02:49;-1.60;99.90
60353;DHT22;46196;52.970;6.954;2022-12-13T16:05:23;-1.70;99.90
60353;DHT22;46196;52.970;6.954;2022-12-13T16:07:51;-1.70;99.90
60353;DHT22;46196;52.970;6.954;2022-12-13T16:10:18;-1.70;99.90
60353;DHT22;46196;52.970;6.954;2022-12-13T16:12:51;-1.80;99.90
60353;DHT22;46196;52.970;6.954;2022-12-13T16:15:46;-1.80;99.90
60353;DHT22;46196;52.970;6.954;2022-12-13T16:18:19;-1.80;99.90
60353;DHT22;46196;52.970;6.954;2022-12-13T16:20:46;-1.90;99.90
60353;DHT22;46196;52.970;6.954;2022-12-13T16:23:12;-1.90;99.90
60353;DHT22;46196;52.970;6.954;2022-12-13T16:25:38;-1.90;99.90
60353;DHT22;46196;52.970;6.954;2022-12-13T16:28:04;-2.00;99.90
60353;DHT22;46196;52.970;6.954;2022-12-13T16:33:22;-2.00;99.90
60353;DHT22;46196;52.970;6.954;2022-12-13T16:35:49;-2.00;99.90
60353;DHT22;46196;52.970;6.954;2022-12-13T16:38:15;-2.10;99.90
60353;DHT22;46196;52.970;6.954;2022-12-13T16:40:43;-2.10;99.90
60353;DHT22;46196;52.970;6.954;2022-12-13T16:43:17;-2.10;99.90
60353;DHT22;46196;52.970;6.954;2022-12-13T16:45:46;-1.00;99.90
60353;DHT22;46196;52.970;6.954;2022-12-13T16:48:13;-2.20;99.90
60353;DHT22;46196;52.970;6.954;2022-12-13T16:50:44;-2.30;99.90
60353;DHT22;46196;52.970;6.954;2022-12-13T16:53:10;-1.10;99.90
60353;DHT22;46196;52.970;6.954;2022-12-13T16:55:36;-2.30;99.90
60353;DHT22;46196;52.970;6.954;2022-12-13T16:58:09;-2.30;99.90
60353;DHT22;46196;52.970;6.954;2022-12-13T17:00:34;-2.40;99.90
60353;DHT22;46196;52.970;6.954;2022-12-13T17:03:00;-2.40;99.90
60353;DHT22;46196;52.970;6.954;2022-12-13T17:05:27;-2.40;99.90
60353;DHT22;46196;52.970;6.954;2022-12-13T17:07:54;-2.50;99.90
60353;DHT22;46196;52.970;6.954;2022-12-13T17:10:21;-2.50;99.90
60353;DHT22;46196;52.970;6.954;2022-12-13T17:12:47;-2.50;99.90
60353;DHT22;46196;52.970;6.954;2022-12-13T17:15:13;-2.50;99.90
60353;DHT22;46196;52.970;6.954;2022-12-13T17:17:44;-2.50;99.90
60353;DHT22;46196;52.970;6.954;2022-12-13T17:20:13;-2.00;99.90
60353;DHT22;46196;52.970;6.954;2022-12-13T17:22:40;-2.60;99.90
60353;DHT22;46196;52.970;6.954;2022-12-13T17:25:06;-2.60;99.90
60353;DHT22;46196;52.970;6.954;2022-12-13T17:27:32;-2.60;99.90
60353;DHT22;46196;52.970;6.954;2022-12-13T17:29:58;-2.70;99.90
60353;DHT22;46196;52.970;6.954;2022-12-13T17:32:26;-2.70;99.90
60353;DHT22;46196;52.970;6.954;2022-12-13T17:34:51;-1.10;99.90
60353;DHT22;46196;52.970;6.954;2022-12-13T17:37:18;-2.70;99.90
60353;DHT22;46196;52.970;6.954;2022-12-13T17:39:43;-2.70;99.90
60353;DHT22;46196;52.970;6.954;2022-12-13T17:42:09;-2.80;99.90
60353;DHT22;46196;52.970;6.954;2022-12-13T17:44:35;-2.80;99.90
60353;DHT22;46196;52.970;6.954;2022-12-13T17:47:01;-2.80;99.90
60353;DHT22;46196;52.970;6.954;2022-12-13T17:49:27;-2.80;99.90
60353;DHT22;46196;52.970;6.954;2022-12-13T17:51:54;-2.80;99.90
60353;DHT22;46196;52.970;6.954;2022-12-13T17:54:21;-2.90;99.90
60353;DHT22;46196;52.970;6.954;2022-12-13T17:56:48;-2.90;99.90
60353;DHT22;46196;52.970;6.954;2022-12-13T17:59:14;-2.10;99.90
60353;DHT22;46196;52.970;6.954;2022-12-13T18:01:41;-2.90;99.90
60353;DHT22;46196;52.970;6.954;2022-12-13T18:04:08;-2.90;99.90